Time;durP1;ratioP1;P1;durP2;ratioP2;P2;SDS_P1;SDS_P2;PMS_P1;PMS_P2;Temp;Humidity;BMP_temperature;BMP_pressure;BME280_temperature;BME280_humidity;BME280_pressure;Samples;Min_cycle;Max_cycle;Signal;HPM_P1;HPM_P2
2022/07/29 00:00:17;;;;;;;246.23;223.73;;;17.90;71.30;;;;;;5007019;28;20068;-76
2022/07/29 00:02:44;;;;;;;300.63;272.63;;;17.80;71.30;;;;;;5003560;28;20141;-76
2022/07/29 00:05:13;;;;;;;275.92;250.50;;;17.80;71.30;;;;;;5005936;28;20164;-76
2022/07/29 00:07:40;;;;;;;284.23;258.05;;;17.80;71.50;;;;;;4989099;28;20054;-76
2022/07/29 00:10:08;;;;;;;291.63;264.35;;;17.80;71.50;;;;;;5022281;28;20453;-76
2022/07/29 00:12:36;;;;;;;288.95;262.30;;;17.80;71.60;;;;;;5017889;28;20042;-76
2022/07/29 00:15:04;;;;;;;258.58;234.38;;;17.70;71.60;;;;;;5002226;28;20051;-76
2022/07/29 00:17:31;;;;;;;233.98;212.55;;;17.70;72.30;;;;;;5006422;28;20054;-76
2022/07/29 00:19:57;;;;;;;267.15;242.45;;;17.70;72.00;;;;;;5006326;28;20061;-76
2022/07/29 00:22:24;;;;;;;240.50;218.20;;;17.70;72.20;;;;;;5006817;28;20054;-76
2022/07/29 00:24:51;;;;;;;248.25;225.20;;;17.70;72.60;;;;;;5007411;28;20054;-76
2022/07/29 00:27:18;;;;;;;248.07;224.82;;;17.70;72.40;;;;;;5005899;28;20730;-76
2022/07/29 00:29:46;;;;;;;214.68;195.13;;;17.60;72.40;;;;;;4988325;28;20058;-76
2022/07/29 00:32:13;;;;;;;252.35;228.70;;;17.60;72.60;;;;;;5006419;28;20050;-76
2022/07/29 00:37:25;;;;;;;233.93;212.15;;;17.50;72.70;;;;;;4986180;28;20042;-76
2022/07/29 00:39:52;;;;;;;223.45;202.80;;;17.50;72.70;;;;;;5005176;28;20588;-76
2022/07/29 00:42:19;;;;;;;216.85;196.65;;;17.50;73.00;;;;;;5006603;28;20520;-76
2022/07/29 00:44:47;;;;;;;232.77;211.18;;;17.50;73.00;;;;;;5003181;28;20050;-76
2022/07/29 00:47:14;;;;;;;219.95;199.68;;;17.40;73.10;;;;;;5002971;28;20546;-76
2022/07/29 00:49:42;;;;;;;229.30;208.20;;;17.40;73.20;;;;;;5006254;28;20046;-76
2022/07/29 00:52:11;;;;;;;211.73;192.10;;;17.40;73.40;;;;;;5006717;28;20065;-76
2022/07/29 00:54:39;;;;;;;224.32;203.43;;;17.40;73.60;;;;;;4989743;28;20460;-75
2022/07/29 00:57:07;;;;;;;232.65;211.00;;;17.30;73.50;;;;;;5005362;28;20571;-76
2022/07/29 00:59:34;;;;;;;245.93;222.75;;;17.30;73.80;;;;;;5005131;28;20056;-76
2022/07/29 01:02:03;;;;;;;223.13;202.18;;;17.30;73.90;;;;;;5005805;28;20270;-76
2022/07/29 01:04:31;;;;;;;196.30;178.13;;;17.30;74.00;;;;;;5005751;28;20596;-75
2022/07/29 01:06:58;;;;;;;228.13;206.88;;;17.30;74.10;;;;;;5004770;28;20058;-76
2022/07/29 01:09:25;;;;;;;242.43;219.65;;;17.30;74.20;;;;;;5003973;28;20378;-76
2022/07/29 01:11:52;;;;;;;246.80;223.63;;;17.30;74.20;;;;;;5005303;28;20050;-76
2022/07/29 01:14:21;;;;;;;263.63;238.63;;;17.20;74.40;;;;;;5005214;28;20050;-76
2022/07/29 01:16:56;;;;;;;244.07;220.85;;;17.20;74.60;;;;;;4997823;28;20141;-76
2022/07/29 01:19:47;;;;;;;239.38;216.68;;;17.20;74.70;;;;;;5005828;28;20047;-76
2022/07/29 01:22:27;;;;;;;251.75;227.80;;;17.10;74.70;;;;;;5006181;28;20086;-76
2022/07/29 01:25:13;;;;;;;227.63;206.23;;;17.10;74.80;;;;;;5005229;28;20106;-76
2022/07/29 01:27:49;;;;;;;237.55;214.95;;;17.10;75.00;;;;;;5005618;28;20154;-76
2022/07/29 01:30:18;;;;;;;250.63;226.52;;;17.00;75.30;;;;;;4991757;28;20046;-76
2022/07/29 01:32:50;;;;;;;239.82;216.95;;;17.00;75.50;;;;;;5005233;28;20058;-76
2022/07/29 01:35:21;;;;;;;225.10;203.52;;;17.00;75.50;;;;;;5004776;28;20054;-76
2022/07/29 01:37:56;;;;;;;255.88;231.30;;;17.00;75.60;;;;;;5004796;28;20046;-76
2022/07/29 01:40:28;;;;;;;250.68;226.70;;;17.00;75.80;;;;;;4998961;28;20061;-76
2022/07/29 01:42:58;;;;;;;251.75;227.70;;;17.00;75.90;;;;;;5002508;28;20541;-76
2022/07/29 01:45:35;;;;;;;248.55;224.77;;;17.00;76.00;;;;;;5003703;28;20470;-76
2022/07/29 01:48:05;;;;;;;265.83;240.18;;;17.00;76.00;;;;;;5002681;28;20057;-76
2022/07/29 01:50:36;;;;;;;214.38;193.90;;;17.00;76.10;;;;;;5005647;28;20076;-76
2022/07/29 01:53:05;;;;;;;257.20;232.38;;;17.00;76.30;;;;;;5007385;28;20141;-76
2022/07/29 01:55:38;;;;;;;271.23;245.13;;;16.90;76.50;;;;;;5008375;28;20537;-76
2022/07/29 01:58:06;;;;;;;236.07;213.63;;;16.90;76.60;;;;;;5009003;28;20058;-76
2022/07/29 02:00:35;;;;;;;246.32;222.70;;;16.90;76.70;;;;;;5008046;28;20054;-76
2022/07/29 02:03:08;;;;;;;252.27;227.52;;;16.90;76.80;;;;;;5008067;28;20046;-76
2022/07/29 02:05:36;;;;;;;264.65;238.80;;;16.90;77.00;;;;;;5011157;28;20054;-76
2022/07/29 02:08:05;;;;;;;226.38;204.60;;;16.80;77.00;;;;;;5008419;28;20525;-76
2022/07/29 02:10:34;;;;;;;250.70;226.35;;;16.90;77.10;;;;;;5008024;28;20081;-75
2022/07/29 02:13:03;;;;;;;242.32;218.95;;;16.90;77.20;;;;;;5007516;28;20624;-76
2022/07/29 02:15:33;;;;;;;227.27;205.40;;;16.90;77.20;;;;;;5006729;28;20043;-76
2022/07/29 02:18:08;;;;;;;259.17;233.93;;;16.90;77.30;;;;;;5006834;28;20085;-75
2022/07/29 02:20:35;;;;;;;250.57;226.30;;;16.90;77.30;;;;;;5001983;28;20097;-76
2022/07/29 02:23:03;;;;;;;244.93;220.73;;;16.90;77.10;;;;;;5006678;28;20061;-76
2022/07/29 02:25:32;;;;;;;252.57;228.05;;;16.90;77.20;;;;;;5006558;28;20635;-75
2022/07/29 02:28:01;;;;;;;244.13;220.90;;;16.90;77.20;;;;;;5007925;28;20057;-76
2022/07/29 02:30:29;;;;;;;271.38;244.07;;;16.90;77.20;;;;;;5006290;28;20065;-75
2022/07/29 02:32:58;;;;;;;249.55;224.93;;;16.90;77.40;;;;;;5007991;28;20493;-76
2022/07/29 02:35:26;;;;;;;291.15;262.60;;;16.90;77.40;;;;;;5008312;28;20054;-76
2022/07/29 02:40:38;;;;;;;279.13;251.60;;;16.90;77.50;;;;;;4998152;28;20061;-75
2022/07/29 02:43:07;;;;;;;270.63;244.23;;;16.80;77.60;;;;;;5006404;28;20559;-76
2022/07/29 02:45:35;;;;;;;268.55;242.10;;;16.80;77.90;;;;;;5005946;28;20145;-76
2022/07/29 02:48:07;;;;;;;266.65;240.70;;;16.80;78.00;;;;;;5007869;28;20054;-76
2022/07/29 02:50:40;;;;;;;266.75;240.68;;;16.80;78.20;;;;;;5004525;28;20050;-76
2022/07/29 02:53:13;;;;;;;277.10;249.70;;;16.80;78.30;;;;;;5024504;28;20057;-76
2022/07/29 02:55:46;;;;;;;260.50;234.73;;;16.70;78.40;;;;;;4989052;28;20094;-76
2022/07/29 02:58:22;;;;;;;263.27;237.02;;;16.70;78.60;;;;;;5006179;28;20054;-75
2022/07/29 03:00:52;;;;;;;254.00;228.82;;;16.80;78.70;;;;;;5007615;28;20545;-76
2022/07/29 03:03:19;;;;;;;263.60;237.60;;;16.80;78.70;;;;;;5004663;28;20043;-76
2022/07/29 03:05:48;;;;;;;252.82;227.52;;;16.80;78.80;;;;;;5006811;28;20125;-76
2022/07/29 03:08:17;;;;;;;252.38;227.52;;;16.80;78.90;;;;;;5006780;28;20427;-76
2022/07/29 03:10:46;;;;;;;258.65;233.05;;;16.80;79.00;;;;;;5006896;28;20054;-76
2022/07/29 03:13:14;;;;;;;250.48;225.93;;;16.80;79.00;;;;;;5005935;28;21073;-76
2022/07/29 03:15:43;;;;;;;254.73;229.45;;;16.80;79.00;;;;;;5006273;28;20050;-76
2022/07/29 03:18:11;;;;;;;266.33;240.20;;;16.80;79.00;;;;;;5006647;28;20371;-76
2022/07/29 03:20:38;;;;;;;250.85;226.35;;;16.80;79.10;;;;;;5005346;28;20125;-76
2022/07/29 03:23:08;;;;;;;271.90;245.00;;;16.80;79.20;;;;;;5023647;28;20054;-76
2022/07/29 03:25:35;;;;;;;272.58;245.48;;;16.80;79.30;;;;;;5005579;28;20052;-76
2022/07/29 03:28:03;;;;;;;269.77;243.48;;;16.80;79.30;;;;;;5007388;28;20529;-76
2022/07/29 03:30:30;;;;;;;275.70;248.50;;;16.80;79.40;;;;;;5005124;28;20566;-75
2022/07/29 03:32:57;;;;;;;251.27;226.60;;;16.80;79.70;;;;;;5009323;28;20062;-76
2022/07/29 03:35:24;;;;;;;260.45;235.00;;;16.80;79.70;;;;;;5007316;28;20046;-76
2022/07/29 03:37:51;;;;;;;255.32;230.38;;;16.70;79.80;;;;;;5005479;28;20050;-75
2022/07/29 03:40:23;;;;;;;260.73;235.23;;;16.70;79.90;;;;;;5007411;28;20098;-76
2022/07/29 03:42:53;;;;;;;239.25;215.82;;;16.70;80.00;;;;;;5007733;28;20058;-76
2022/07/29 03:45:20;;;;;;;249.18;224.73;;;16.70;80.10;;;;;;4995496;28;20540;-76
2022/07/29 03:47:52;;;;;;;255.70;230.57;;;16.70;80.10;;;;;;5007011;28;20542;-76
2022/07/29 03:50:21;;;;;;;245.32;221.30;;;16.70;80.30;;;;;;5005564;28;20039;-75
2022/07/29 03:52:49;;;;;;;222.55;201.05;;;16.70;80.30;;;;;;5005742;28;20062;-75
2022/07/29 03:55:16;;;;;;;221.20;199.75;;;16.70;80.20;;;;;;5007453;28;20153;-76
2022/07/29 03:57:46;;;;;;;244.27;220.27;;;16.70;80.20;;;;;;5004470;28;20109;-76
2022/07/29 04:00:15;;;;;;;246.00;222.05;;;16.70;80.30;;;;;;5019921;28;20513;-75
2022/07/29 04:02:44;;;;;;;236.77;213.57;;;16.70;80.30;;;;;;5002583;28;20054;-75
2022/07/29 04:05:13;;;;;;;235.95;212.43;;;16.70;80.30;;;;;;5005435;28;20042;-76
2022/07/29 04:07:45;;;;;;;233.02;210.02;;;16.70;80.50;;;;;;5005862;28;20064;-76
2022/07/29 04:10:12;;;;;;;221.95;199.40;;;16.70;80.60;;;;;;5003530;28;20493;-76
2022/07/29 04:12:39;;;;;;;233.27;210.18;;;16.70;80.70;;;;;;5004404;28;20058;-76
2022/07/29 04:15:08;;;;;;;246.88;222.43;;;16.60;80.80;;;;;;4990544;28;20549;-76
2022/07/29 04:17:35;;;;;;;235.38;212.02;;;16.60;81.00;;;;;;4989002;28;20531;-76
2022/07/29 04:20:02;;;;;;;235.48;212.13;;;16.60;81.20;;;;;;5007628;28;20061;-75
2022/07/29 04:22:29;;;;;;;231.25;208.18;;;16.50;81.40;;;;;;5005473;28;20058;-75
2022/07/29 04:24:56;;;;;;;235.05;211.68;;;16.50;81.50;;;;;;5004795;28;20058;-76
2022/07/29 04:27:23;;;;;;;243.13;219.07;;;16.50;81.90;;;;;;5007568;28;20054;-75
2022/07/29 04:29:50;;;;;;;234.77;211.32;;;16.40;82.10;;;;;;5007367;28;20061;-76
2022/07/29 04:32:19;;;;;;;224.93;202.55;;;16.40;82.20;;;;;;5007872;28;20050;-76
2022/07/29 04:34:46;;;;;;;222.35;199.95;;;16.40;82.40;;;;;;5002080;28;20060;-76
2022/07/29 04:37:13;;;;;;;231.00;208.25;;;16.40;82.50;;;;;;5004301;28;20050;-76
2022/07/29 04:39:40;;;;;;;212.30;190.63;;;16.40;83.10;;;;;;5006777;28;20058;-75
2022/07/29 04:42:07;;;;;;;206.75;185.88;;;16.40;82.80;;;;;;5006328;28;20141;-76
2022/07/29 04:44:34;;;;;;;232.20;208.80;;;16.40;82.90;;;;;;5008462;28;20086;-75
2022/07/29 04:47:01;;;;;;;226.95;204.57;;;16.40;83.10;;;;;;5002341;28;20060;-76
2022/07/29 04:49:29;;;;;;;232.15;209.10;;;16.40;83.20;;;;;;4985402;28;20046;-76
2022/07/29 04:51:56;;;;;;;230.60;207.63;;;16.40;83.30;;;;;;5004519;28;20053;-76
2022/07/29 04:54:23;;;;;;;233.85;210.77;;;16.40;83.20;;;;;;5005111;28;20596;-75
2022/07/29 04:56:50;;;;;;;216.60;195.38;;;16.40;83.20;;;;;;5007193;28;20054;-75
2022/07/29 04:59:16;;;;;;;194.30;173.93;;;16.40;83.30;;;;;;5005938;28;22003;-75
2022/07/29 05:01:43;;;;;;;240.98;217.18;;;16.40;83.30;;;;;;5003523;28;20046;-75
2022/07/29 05:04:10;;;;;;;244.35;220.10;;;16.40;83.50;;;;;;5008587;28;20539;-75
2022/07/29 05:06:38;;;;;;;234.68;211.63;;;16.40;83.50;;;;;;5006290;28;20054;-76
2022/07/29 05:09:05;;;;;;;222.98;200.82;;;16.40;83.60;;;;;;5007287;28;20053;-76
2022/07/29 05:11:32;;;;;;;215.63;194.27;;;16.40;83.70;;;;;;5004022;28;20109;-75
2022/07/29 05:13:59;;;;;;;240.55;216.63;;;16.40;83.70;;;;;;5007108;28;20134;-76
2022/07/29 05:16:26;;;;;;;240.77;217.00;;;16.40;83.90;;;;;;5008278;28;20050;-76
2022/07/29 05:18:53;;;;;;;230.45;207.65;;;16.40;83.90;;;;;;5006349;28;20536;-75
2022/07/29 05:21:20;;;;;;;220.40;198.60;;;16.40;84.00;;;;;;5005780;28;20047;-75
2022/07/29 05:23:48;;;;;;;224.88;202.43;;;16.40;84.10;;;;;;5007267;28;20050;-76
2022/07/29 05:26:15;;;;;;;237.32;213.77;;;16.40;84.20;;;;;;5005631;28;20121;-75
2022/07/29 05:28:42;;;;;;;239.35;215.57;;;16.40;84.30;;;;;;5002534;28;20047;-76
2022/07/29 05:31:09;;;;;;;229.32;206.32;;;16.40;84.60;;;;;;5005284;28;20093;-76
2022/07/29 05:33:36;;;;;;;223.82;201.15;;;16.40;84.70;;;;;;5011272;28;20070;-76
2022/07/29 05:36:05;;;;;;;205.05;184.80;;;16.40;84.60;;;;;;5011264;28;20440;-76
2022/07/29 05:38:32;;;;;;;203.88;183.50;;;16.40;84.70;;;;;;5010698;28;20472;-76
2022/07/29 05:41:00;;;;;;;212.98;191.82;;;16.40;84.80;;;;;;5012910;28;20512;-75
2022/07/29 05:43:27;;;;;;;218.15;196.38;;;16.40;84.90;;;;;;5011279;28;20117;-76
2022/07/29 05:45:54;;;;;;;190.20;171.43;;;16.40;85.00;;;;;;5012071;28;20177;-75
2022/07/29 05:48:21;;;;;;;209.43;188.60;;;16.40;85.10;;;;;;5004687;28;20050;-76
2022/07/29 05:50:48;;;;;;;213.73;192.43;;;16.40;85.20;;;;;;5011245;28;20129;-75
2022/07/29 05:53:15;;;;;;;166.85;150.65;;;16.40;85.30;;;;;;5011179;28;20977;-76
2022/07/29 05:55:42;;;;;;;195.98;176.90;;;16.40;85.30;;;;;;5008984;28;20517;-76
2022/07/29 05:58:11;;;;;;;211.23;190.45;;;16.40;85.50;;;;;;5006731;28;20054;-76
2022/07/29 06:00:38;;;;;;;201.98;182.10;;;16.40;85.60;;;;;;5008751;28;20081;-75
2022/07/29 06:03:04;;;;;;;224.57;202.30;;;16.40;85.70;;;;;;5002706;28;20055;-76
2022/07/29 06:05:31;;;;;;;221.23;199.15;;;16.40;86.00;;;;;;5005124;28;20051;-77
2022/07/29 06:07:58;;;;;;;225.73;203.15;;;16.40;86.10;;;;;;5007455;28;20050;-77
2022/07/29 06:10:26;;;;;;;233.07;209.75;;;16.40;86.20;;;;;;5006328;28;20051;-77
2022/07/29 06:12:53;;;;;;;220.77;198.32;;;16.50;86.50;;;;;;5005666;28;20050;-77
2022/07/29 06:15:21;;;;;;;233.73;208.65;;;16.50;86.60;;;;;;5004706;28;20141;-77
2022/07/29 06:17:48;;;;;;;236.32;212.68;;;16.50;86.70;;;;;;4991346;28;20046;-77
2022/07/29 06:20:15;;;;;;;242.30;217.63;;;16.50;86.80;;;;;;5020542;28;20560;-77
2022/07/29 06:22:42;;;;;;;245.25;220.63;;;16.50;87.10;;;;;;5007312;28;20058;-77
2022/07/29 06:25:09;;;;;;;256.58;230.75;;;16.50;87.10;;;;;;5006826;28;20129;-76
2022/07/29 06:27:36;;;;;;;236.52;212.70;;;16.50;87.30;;;;;;5004710;28;20057;-76
2022/07/29 06:30:06;;;;;;;263.60;237.07;;;16.50;87.30;;;;;;5004219;28;20049;-77
2022/07/29 06:32:34;;;;;;;257.83;231.98;;;16.60;87.60;;;;;;5003528;28;20061;-77
2022/07/29 06:35:03;;;;;;;254.23;229.20;;;16.60;87.60;;;;;;5005704;28;20196;-77
2022/07/29 06:37:29;;;;;;;258.25;230.93;;;16.60;87.70;;;;;;5021255;28;20054;-76
2022/07/29 06:42:37;;;;;;;240.95;216.60;;;16.60;87.90;;;;;;5007046;28;20054;-77
2022/07/29 06:45:04;;;;;;;250.95;225.50;;;16.60;87.70;;;;;;5007524;28;20069;-76
2022/07/29 06:47:31;;;;;;;251.65;226.30;;;16.60;88.40;;;;;;5005617;28;20050;-76
2022/07/29 06:50:00;;;;;;;248.23;222.98;;;16.60;88.30;;;;;;5004656;28;20057;-77
2022/07/29 06:52:26;;;;;;;230.60;203.30;;;16.60;88.20;;;;;;5003344;28;20165;-77
2022/07/29 06:54:54;;;;;;;218.70;196.35;;;16.70;88.10;;;;;;5011039;28;20132;-77
2022/07/29 06:57:21;;;;;;;222.88;200.40;;;16.70;87.90;;;;;;5012755;28;20493;-77
2022/07/29 06:59:48;;;;;;;210.27;189.02;;;16.70;87.70;;;;;;5013532;28;20415;-77
2022/07/29 07:02:15;;;;;;;221.02;198.15;;;16.70;87.80;;;;;;5013183;28;20061;-77
2022/07/29 07:04:42;;;;;;;217.77;195.48;;;16.70;87.90;;;;;;5005175;28;20539;-78
2022/07/29 07:07:11;;;;;;;218.85;196.60;;;16.70;87.80;;;;;;5001547;28;20054;-78
2022/07/29 07:09:37;;;;;;;216.00;193.80;;;16.70;87.90;;;;;;5010924;28;20074;-76
2022/07/29 07:12:05;;;;;;;178.75;160.85;;;16.70;88.10;;;;;;5011079;28;20057;-76
2022/07/29 07:14:32;;;;;;;245.23;220.68;;;16.70;88.00;;;;;;5012197;28;20844;-77
2022/07/29 07:17:03;;;;;;;225.68;202.77;;;16.70;88.00;;;;;;5002595;28;20129;-78
2022/07/29 07:19:30;;;;;;;228.43;205.38;;;16.70;87.90;;;;;;5024848;28;20125;-79
2022/07/29 07:21:56;;;;;;;236.57;213.05;;;16.80;88.20;;;;;;5010819;28;20062;-79
2022/07/29 07:24:25;;;;;;;235.93;212.15;;;16.80;88.50;;;;;;5011009;28;20082;-79
2022/07/29 07:26:52;;;;;;;233.30;209.40;;;16.80;88.60;;;;;;5010554;28;20054;-80
2022/07/29 07:29:19;;;;;;;246.75;222.20;;;16.80;88.50;;;;;;5011938;28;20507;-78
2022/07/29 07:31:46;;;;;;;207.77;186.82;;;16.80;88.40;;;;;;5007724;28;20051;-80
2022/07/29 07:34:13;;;;;;;211.02;190.20;;;16.80;88.50;;;;;;5008465;28;20146;-80
2022/07/29 07:36:40;;;;;;;218.23;196.20;;;16.80;88.30;;;;;;5007878;28;20086;-79
2022/07/29 07:39:07;;;;;;;251.50;226.43;;;16.90;88.50;;;;;;5002794;28;20461;-79
2022/07/29 07:41:35;;;;;;;215.10;194.13;;;16.90;88.60;;;;;;4989588;28;20084;-79
2022/07/29 07:44:02;;;;;;;209.65;189.13;;;16.90;88.70;;;;;;5008455;28;20051;-75
2022/07/29 07:46:29;;;;;;;227.85;205.00;;;16.90;88.90;;;;;;5012075;28;20054;-75
2022/07/29 07:48:56;;;;;;;218.73;197.52;;;16.90;88.70;;;;;;5007056;28;20058;-76
2022/07/29 07:51:23;;;;;;;219.60;198.02;;;17.00;88.70;;;;;;5008396;28;20050;-75
2022/07/29 07:53:50;;;;;;;206.10;186.05;;;17.00;88.50;;;;;;5010975;28;20051;-80
2022/07/29 07:56:17;;;;;;;224.07;202.15;;;17.00;88.40;;;;;;5007007;28;20120;-79
2022/07/29 07:58:45;;;;;;;219.30;198.10;;;17.10;88.30;;;;;;5010793;28;20547;-79
2022/07/29 08:01:12;;;;;;;210.93;190.48;;;17.10;88.40;;;;;;5011761;28;20058;-80
2022/07/29 08:03:39;;;;;;;208.48;188.15;;;17.10;88.30;;;;;;4995039;28;20046;-81
2022/07/29 08:06:07;;;;;;;214.48;193.77;;;17.20;88.70;;;;;;4992056;28;20053;-77
2022/07/29 08:08:34;;;;;;;226.45;204.57;;;17.20;88.70;;;;;;5009871;28;20125;-83
2022/07/29 08:11:01;;;;;;;215.18;193.98;;;17.20;88.90;;;;;;5004987;28;20043;-82
2022/07/29 08:13:29;;;;;;;218.85;197.45;;;17.30;89.50;;;;;;4994439;28;20058;-83
2022/07/29 08:15:59;;;;;;;199.55;180.15;;;17.30;89.50;;;;;;5007467;28;20053;-83
2022/07/29 08:18:27;;;;;;;204.32;184.68;;;17.30;89.80;;;;;;4994959;28;20136;-82
2022/07/29 08:20:55;;;;;;;215.65;194.77;;;17.40;89.60;;;;;;5012381;28;20050;-84
2022/07/29 08:23:22;;;;;;;210.60;190.25;;;17.40;89.80;;;;;;4996572;28;20141;-84
2022/07/29 08:25:50;;;;;;;229.48;207.60;;;17.50;90.00;;;;;;4997112;28;20532;-82
2022/07/29 08:28:17;;;;;;;218.70;197.40;;;17.50;90.00;;;;;;4996235;28;20050;-85
2022/07/29 08:30:45;;;;;;;213.23;191.93;;;17.60;89.80;;;;;;4995778;28;20487;-82
2022/07/29 08:33:13;;;;;;;208.27;187.88;;;17.60;89.60;;;;;;4996566;28;20084;-83
2022/07/29 08:35:40;;;;;;;204.52;184.63;;;17.60;89.40;;;;;;5009517;28;20146;-88
2022/07/29 08:38:08;;;;;;;208.50;188.50;;;17.70;89.60;;;;;;5001717;28;20061;-82
2022/07/29 08:40:35;;;;;;;171.98;155.70;;;17.80;89.10;;;;;;4993878;28;20046;-81
2022/07/29 08:43:07;;;;;;;219.45;197.85;;;17.80;88.90;;;;;;5010986;28;20054;-82
2022/07/29 08:45:42;;;;;;;221.20;199.90;;;17.90;88.80;;;;;;4992147;28;20639;-83
2022/07/29 08:48:09;;;;;;;222.65;201.55;;;17.80;88.70;;;;;;4987987;28;20054;-84
2022/07/29 08:50:39;;;;;;;220.52;199.77;;;17.90;89.00;;;;;;5008217;28;20145;-80
2022/07/29 08:53:06;;;;;;;214.82;194.77;;;18.00;88.30;;;;;;5025738;28;20054;-80
2022/07/29 08:55:34;;;;;;;235.02;212.65;;;18.00;88.10;;;;;;5004557;28;20432;-79
2022/07/29 08:58:02;;;;;;;232.82;211.05;;;18.00;87.90;;;;;;5005972;28;21190;-80
2022/07/29 09:00:30;;;;;;;218.95;197.88;;;18.10;87.90;;;;;;4980639;28;20122;-79
2022/07/29 09:02:59;;;;;;;217.18;196.57;;;18.10;87.90;;;;;;5001444;28;20141;-79
2022/07/29 09:05:27;;;;;;;219.25;198.57;;;18.20;87.20;;;;;;5006565;28;20528;-79
2022/07/29 09:07:56;;;;;;;212.05;191.95;;;18.20;87.30;;;;;;4990621;28;20054;-79
2022/07/29 09:10:23;;;;;;;212.18;191.75;;;18.30;87.20;;;;;;5005892;28;20074;-79
2022/07/29 09:12:50;;;;;;;201.68;182.35;;;18.30;86.90;;;;;;4988567;28;20567;-79
2022/07/29 09:15:18;;;;;;;190.15;171.18;;;18.30;86.60;;;;;;5011951;28;20559;-79
2022/07/29 09:17:46;;;;;;;201.52;182.07;;;18.30;86.60;;;;;;4999241;28;20047;-79
2022/07/29 09:20:15;;;;;;;216.50;195.95;;;18.40;86.80;;;;;;5012012;28;20050;-74
2022/07/29 09:22:42;;;;;;;217.13;196.30;;;18.40;86.70;;;;;;5005107;28;20081;-79
2022/07/29 09:25:13;;;;;;;218.15;197.18;;;18.40;86.60;;;;;;5008837;28;20062;-78
2022/07/29 09:27:40;;;;;;;207.52;187.43;;;18.40;86.40;;;;;;5009828;28;20120;-79
2022/07/29 09:30:10;;;;;;;193.30;174.07;;;18.50;86.40;;;;;;5004508;28;20047;-80
2022/07/29 09:32:55;;;;;;;191.95;173.85;;;18.50;86.20;;;;;;5009838;28;20051;-81
2022/07/29 09:35:25;;;;;;;214.13;193.80;;;18.50;85.70;;;;;;5001639;28;20050;-78
2022/07/29 09:37:52;;;;;;;206.68;187.13;;;18.50;85.90;;;;;;5010375;28;20052;-79
2022/07/29 09:40:22;;;;;;;174.30;158.00;;;18.50;85.90;;;;;;5007655;28;20169;-79
2022/07/29 09:42:49;;;;;;;207.15;187.85;;;18.50;86.10;;;;;;5009707;28;20054;-79
2022/07/29 09:45:28;;;;;;;209.50;190.05;;;18.50;86.30;;;;;;4990324;28;20050;-81
2022/07/29 09:47:57;;;;;;;192.68;175.10;;;18.50;86.50;;;;;;4986295;28;20520;-81
2022/07/29 09:50:35;;;;;;;207.85;188.75;;;18.60;86.90;;;;;;4987491;28;20086;-80
2022/07/29 09:53:02;;;;;;;218.55;198.18;;;18.60;86.90;;;;;;4997058;28;20054;-80
2022/07/29 09:55:30;;;;;;;200.05;181.60;;;18.60;86.70;;;;;;5009001;28;20050;-79
2022/07/29 09:58:16;;;;;;;223.30;202.68;;;18.60;86.90;;;;;;5010653;28;20146;-81
2022/07/29 10:00:44;;;;;;;203.50;184.50;;;18.70;86.70;;;;;;4992815;28;20206;-79
2022/07/29 10:03:11;;;;;;;229.10;207.90;;;18.70;87.10;;;;;;5006905;28;20074;-78
2022/07/29 10:05:39;;;;;;;213.80;193.60;;;18.70;87.40;;;;;;5008358;28;20431;-79
2022/07/29 10:08:07;;;;;;;208.82;189.18;;;18.70;87.50;;;;;;5008306;28;20060;-84
2022/07/29 10:10:37;;;;;;;215.65;195.65;;;18.80;87.50;;;;;;4992213;28;20517;-81
2022/07/29 10:13:07;;;;;;;211.10;191.68;;;18.80;87.60;;;;;;5006201;28;20061;-80
2022/07/29 10:15:37;;;;;;;186.90;170.18;;;18.80;87.70;;;;;;5005859;28;20942;-81
2022/07/29 10:18:04;;;;;;;189.43;172.18;;;18.80;87.90;;;;;;4987772;28;20046;-85
2022/07/29 10:20:31;;;;;;;224.77;204.40;;;18.90;88.10;;;;;;4986905;28;20210;-82
2022/07/29 10:22:59;;;;;;;230.20;209.70;;;18.90;88.40;;;;;;5009626;28;20050;-81
2022/07/29 10:25:27;;;;;;;227.98;207.30;;;18.90;88.30;;;;;;4985447;28;20145;-81
2022/07/29 10:27:56;;;;;;;238.15;217.05;;;18.90;88.50;;;;;;4991775;28;20140;-79
2022/07/29 10:30:24;;;;;;;231.20;210.30;;;18.90;88.80;;;;;;5009822;28;20089;-81
2022/07/29 10:33:08;;;;;;;228.13;207.63;;;19.00;88.80;;;;;;4996582;28;20054;-80
2022/07/29 10:35:46;;;;;;;224.57;204.37;;;19.00;88.70;;;;;;5006521;28;20053;-82
2022/07/29 10:38:31;;;;;;;235.25;214.18;;;19.10;88.80;;;;;;4991098;28;20262;-82
2022/07/29 10:43:57;;;;;;;225.60;205.13;;;19.20;88.70;;;;;;4996323;28;20081;-81
2022/07/29 10:46:25;;;;;;;193.57;176.48;;;19.30;88.50;;;;;;4997269;28;20054;-81
2022/07/29 10:49:06;;;;;;;196.05;179.23;;;19.30;88.80;;;;;;4994587;28;20058;-80
2022/07/29 10:51:59;;;;;;;209.93;190.95;;;19.40;88.30;;;;;;5007665;28;20050;-80
2022/07/29 10:54:47;;;;;;;179.77;163.98;;;19.40;88.70;;;;;;5010844;28;20581;-77
2022/07/29 10:57:25;;;;;;;199.82;182.10;;;19.50;87.80;;;;;;4994607;28;20058;-79
2022/07/29 11:00:31;;;;;;;171.57;156.85;;;19.60;87.20;;;;;;5017084;28;20050;-80
2022/07/29 11:02:59;;;;;;;180.55;164.48;;;19.60;86.70;;;;;;5007186;28;20061;-80
2022/07/29 11:05:29;;;;;;;195.52;178.57;;;19.70;86.60;;;;;;4992538;28;20521;-80
2022/07/29 11:08:20;;;;;;;201.05;183.43;;;19.80;86.50;;;;;;5006505;28;20054;-80
2022/07/29 11:10:48;;;;;;;207.23;189.25;;;19.80;86.10;;;;;;4981287;28;20047;-80
2022/07/29 11:13:47;;;;;;;204.18;186.57;;;19.90;86.80;;;;;;4976474;28;20051;-81
2022/07/29 11:16:16;;;;;;;188.40;172.20;;;20.00;86.90;;;;;;4992673;28;20073;-80
2022/07/29 11:19:20;;;;;;;169.85;155.75;;;20.00;87.70;;;;;;5006917;28;20055;-81
2022/07/29 11:21:49;;;;;;;167.00;153.00;;;20.20;87.80;;;;;;5005899;28;20505;-80
2022/07/29 11:24:17;;;;;;;177.07;162.35;;;20.30;88.40;;;;;;4996636;28;20082;-81
2022/07/29 11:26:45;;;;;;;190.23;173.02;;;20.40;87.20;;;;;;5008449;28;20577;-80
2022/07/29 11:29:22;;;;;;;192.68;176.48;;;20.60;86.60;;;;;;5005708;28;20155;-80
2022/07/29 11:31:54;;;;;;;196.48;180.02;;;20.60;85.80;;;;;;5009132;28;20049;-80
2022/07/29 11:34:29;;;;;;;199.05;182.60;;;20.70;85.50;;;;;;5003258;28;20050;-80
2022/07/29 11:37:15;;;;;;;189.70;173.57;;;20.80;85.80;;;;;;5011778;28;20823;-79
2022/07/29 11:39:44;;;;;;;211.68;189.32;;;20.90;85.00;;;;;;5011151;28;20515;-79
2022/07/29 11:42:45;;;;;;;215.57;196.93;;;21.00;84.70;;;;;;5008709;28;20054;-78
2022/07/29 11:45:15;;;;;;;177.35;162.02;;;21.10;84.00;;;;;;4961705;28;20062;-80
2022/07/29 11:47:51;;;;;;;202.82;184.68;;;21.10;83.60;;;;;;5001101;28;20054;-79
2022/07/29 11:50:28;;;;;;;198.75;181.75;;;21.20;83.30;;;;;;4995692;28;20054;-76
2022/07/29 11:52:55;;;;;;;188.45;172.23;;;21.30;83.40;;;;;;5005724;28;20059;-78
2022/07/29 11:55:23;;;;;;;177.18;162.65;;;21.30;82.90;;;;;;5010925;28;20039;-75
2022/07/29 11:57:53;;;;;;;193.35;177.25;;;21.30;82.20;;;;;;5012593;28;20051;-77
2022/07/29 12:00:38;;;;;;;195.02;178.70;;;21.40;81.70;;;;;;5013093;28;20054;-77
2022/07/29 12:03:09;;;;;;;200.93;184.13;;;21.40;81.70;;;;;;5012905;28;20051;-76
2022/07/29 12:05:39;;;;;;;201.98;185.45;;;21.40;82.50;;;;;;5012125;28;20047;-74
2022/07/29 12:08:14;;;;;;;197.50;181.10;;;21.50;82.70;;;;;;5007450;28;20050;-75
2022/07/29 12:10:42;;;;;;;200.25;183.45;;;21.50;82.30;;;;;;5002769;28;20051;-75
2022/07/29 12:13:10;;;;;;;207.20;190.20;;;21.50;81.60;;;;;;5006046;28;20528;-74
2022/07/29 12:15:38;;;;;;;207.25;189.45;;;21.60;81.70;;;;;;5004108;28;20055;-75
2022/07/29 12:18:13;;;;;;;207.02;189.75;;;21.60;81.90;;;;;;4994615;28;20077;-76
2022/07/29 12:20:40;;;;;;;200.88;183.85;;;21.70;81.70;;;;;;4993819;28;20081;-75
2022/07/29 12:23:08;;;;;;;203.32;186.82;;;21.80;82.20;;;;;;5005971;28;20054;-75
2022/07/29 12:25:36;;;;;;;200.95;184.35;;;21.80;82.50;;;;;;5002745;28;20055;-75
2022/07/29 12:28:05;;;;;;;191.38;176.15;;;21.80;82.00;;;;;;5007015;28;20931;-76
2022/07/29 12:30:41;;;;;;;189.90;173.20;;;21.90;82.10;;;;;;5006109;28;20436;-75